Time;durP1;ratioP1;P1;durP2;ratioP2;P2;SDS_P1;SDS_P2;PMS_P1;PMS_P2;Temp;Humidity;BMP_temperature;BMP_pressure;BME280_temperature;BME280_humidity;BME280_pressure;Samples;Min_cycle;Max_cycle;Signal;HPM_P1;HPM_P2
2023/04/15 00:01:25;;;;;;;6.90;4.15;;;21.00;32.70;;;;;;5049173;28;20107;-48
2023/04/15 00:03:53;;;;;;;5.05;3.85;;;21.00;32.70;;;;;;5050895;28;20036;-47
2023/04/15 00:06:20;;;;;;;5.30;4.07;;;21.00;32.70;;;;;;5051165;28;20032;-46
2023/04/15 00:08:46;;;;;;;5.03;3.47;;;21.00;32.80;;;;;;5051005;28;20341;-46
2023/04/15 00:11:13;;;;;;;5.22;3.53;;;21.00;32.80;;;;;;5052075;28;20117;-48
2023/04/15 00:13:39;;;;;;;5.13;3.38;;;21.00;32.70;;;;;;5051082;28;20035;-47
2023/04/15 00:16:07;;;;;;;4.93;3.33;;;21.00;32.70;;;;;;5053288;28;20456;-48
2023/04/15 00:18:33;;;;;;;4.82;3.10;;;21.00;32.70;;;;;;5047278;28;20453;-47
2023/04/15 00:20:59;;;;;;;5.93;3.20;;;21.00;32.70;;;;;;5051531;28;20510;-51
2023/04/15 00:23:25;;;;;;;6.93;3.42;;;21.00;32.70;;;;;;5049506;28;20029;-49
2023/04/15 00:25:51;;;;;;;5.70;3.33;;;21.00;32.70;;;;;;5052186;28;20487;-49
2023/04/15 00:28:17;;;;;;;4.82;3.00;;;21.00;32.70;;;;;;5047460;28;20334;-45
2023/04/15 00:30:43;;;;;;;4.63;3.22;;;21.00;32.70;;;;;;5052870;28;20033;-54
2023/04/15 00:33:09;;;;;;;3.40;2.45;;;21.00;32.60;;;;;;5049921;28;20029;-47
2023/04/15 00:35:36;;;;;;;4.55;2.70;;;21.00;32.60;;;;;;5050177;28;20365;-46
2023/04/15 00:38:03;;;;;;;4.90;2.95;;;21.00;32.60;;;;;;5050966;28;20025;-49
2023/04/15 00:40:29;;;;;;;3.42;2.55;;;21.00;32.60;;;;;;5050496;28;20029;-46
2023/04/15 00:42:55;;;;;;;3.33;2.40;;;21.00;32.50;;;;;;5049676;28;20035;-49
2023/04/15 00:45:22;;;;;;;3.20;2.28;;;21.10;32.70;;;;;;5049463;28;20402;-47
2023/04/15 00:47:48;;;;;;;4.07;2.42;;;21.00;32.60;;;;;;5049373;28;20123;-47
2023/04/15 00:50:14;;;;;;;3.78;2.67;;;21.00;32.60;;;;;;5051244;28;20033;-48
2023/04/15 00:52:40;;;;;;;4.28;2.92;;;21.00;32.60;;;;;;5052206;28;20025;-50
2023/04/15 00:55:07;;;;;;;4.43;2.78;;;21.00;33.20;;;;;;5050290;28;20044;-49
2023/04/15 00:57:34;;;;;;;3.53;2.35;;;21.00;32.90;;;;;;5047869;28;20029;-48
2023/04/15 01:00:00;;;;;;;4.45;2.95;;;21.00;32.60;;;;;;5045084;28;20336;-51
2023/04/15 01:02:26;;;;;;;3.72;2.83;;;21.00;32.60;;;;;;5045466;28;20024;-51
2023/04/15 01:04:52;;;;;;;3.67;2.50;;;21.00;32.60;;;;;;5050493;28;20199;-49
2023/04/15 01:07:18;;;;;;;4.32;2.53;;;21.10;32.70;;;;;;5044205;28;20116;-52
2023/04/15 01:09:44;;;;;;;3.33;2.40;;;21.10;32.70;;;;;;5048332;28;20036;-51
2023/04/15 01:12:13;;;;;;;4.35;2.40;;;21.10;32.70;;;;;;5050874;28;20017;-48
2023/04/15 01:14:39;;;;;;;2.92;2.20;;;21.00;32.60;;;;;;5046786;28;20037;-54
2023/04/15 01:17:04;;;;;;;4.55;2.35;;;21.10;32.70;;;;;;5049432;28;20033;-49
2023/04/15 01:19:32;;;;;;;2.95;2.10;;;21.10;32.70;;;;;;5050693;28;20060;-50
2023/04/15 01:21:58;;;;;;;3.47;2.47;;;21.00;32.70;;;;;;5049127;28;20021;-49
2023/04/15 01:24:26;;;;;;;3.05;2.13;;;21.00;32.70;;;;;;5048393;28;20024;-50
2023/04/15 01:26:53;;;;;;;3.67;2.30;;;21.10;32.70;;;;;;5048616;28;20233;-54
2023/04/15 01:29:19;;;;;;;2.58;1.95;;;21.10;32.80;;;;;;5048981;28;20474;-50
2023/04/15 01:31:52;;;;;;;4.25;2.10;;;21.10;32.80;;;;;;5046198;28;20444;-48
2023/04/15 01:34:18;;;;;;;3.13;2.08;;;21.00;32.90;;;;;;5048860;28;20033;-50
2023/04/15 01:36:44;;;;;;;3.47;2.08;;;21.10;32.90;;;;;;5049835;28;20403;-49
2023/04/15 01:39:10;;;;;;;2.58;1.83;;;21.10;32.90;;;;;;5050815;28;20028;-50
2023/04/15 01:41:36;;;;;;;2.58;2.10;;;21.10;32.90;;;;;;5049659;28;20036;-52
2023/04/15 01:44:02;;;;;;;2.92;1.80;;;21.10;32.90;;;;;;5048240;28;20152;-50
2023/04/15 01:46:27;;;;;;;3.83;1.88;;;21.10;33.00;;;;;;5048707;28;20061;-55
2023/04/15 01:48:53;;;;;;;3.42;2.33;;;21.00;32.90;;;;;;5049736;28;20452;-52
2023/04/15 01:51:19;;;;;;;4.03;2.58;;;21.10;32.90;;;;;;5045849;28;20039;-46
2023/04/15 01:53:45;;;;;;;2.63;1.80;;;21.00;32.90;;;;;;5050771;28;20036;-47
2023/04/15 01:56:11;;;;;;;4.20;2.22;;;21.00;32.90;;;;;;5048338;28;20124;-46
2023/04/15 01:58:37;;;;;;;2.70;1.60;;;21.00;32.90;;;;;;5049315;28;20112;-49
2023/04/15 02:01:03;;;;;;;2.78;1.65;;;21.00;32.90;;;;;;5049267;28;20417;-48
2023/04/15 02:03:31;;;;;;;2.47;1.60;;;21.00;32.90;;;;;;5046719;28;20036;-51
2023/04/15 02:05:57;;;;;;;2.60;1.63;;;21.10;33.10;;;;;;5050220;28;20020;-51
2023/04/15 02:08:23;;;;;;;2.97;1.60;;;21.00;33.00;;;;;;5048248;28;20029;-50
2023/04/15 02:10:49;;;;;;;2.67;1.65;;;21.00;33.00;;;;;;5048795;28;20070;-48
2023/04/15 02:13:15;;;;;;;2.30;1.73;;;21.00;33.00;;;;;;5046190;28;20134;-48
2023/04/15 02:15:47;;;;;;;3.45;1.75;;;21.00;33.00;;;;;;5048711;28;20056;-50
2023/04/15 02:18:13;;;;;;;3.03;1.85;;;21.00;33.00;;;;;;5045339;28;20376;-52
2023/04/15 02:20:39;;;;;;;1.90;1.33;;;21.00;33.00;;;;;;5050079;28;20475;-47
2023/04/15 02:23:06;;;;;;;2.50;1.45;;;21.10;33.10;;;;;;5049672;28;20021;-50
2023/04/15 02:25:32;;;;;;;2.95;1.60;;;21.00;33.00;;;;;;5048080;28;20063;-51
2023/04/15 02:27:57;;;;;;;3.13;1.80;;;21.00;33.00;;;;;;5049624;28;20021;-50
2023/04/15 02:30:24;;;;;;;2.47;1.48;;;21.00;33.00;;;;;;5050641;28;20466;-50
2023/04/15 02:32:50;;;;;;;1.92;1.50;;;21.00;33.00;;;;;;5046751;28;20044;-51
2023/04/15 02:35:18;;;;;;;4.03;1.40;;;21.00;33.10;;;;;;5047777;28;20452;-47
2023/04/15 02:37:45;;;;;;;2.33;1.50;;;21.00;33.10;;;;;;5049424;28;20021;-50
2023/04/15 02:40:12;;;;;;;1.73;1.48;;;21.00;33.10;;;;;;5032679;28;20479;-49
2023/04/15 02:42:39;;;;;;;2.08;1.50;;;21.00;33.10;;;;;;5031633;28;20170;-48
2023/04/15 02:45:06;;;;;;;1.95;1.40;;;21.00;33.10;;;;;;5071580;28;20114;-51
2023/04/15 02:47:35;;;;;;;2.10;1.30;;;21.00;33.10;;;;;;5045713;28;20024;-50
2023/04/15 02:50:04;;;;;;;2.58;1.40;;;21.00;33.10;;;;;;5045029;28;20040;-49
2023/04/15 02:52:31;;;;;;;2.60;1.30;;;21.00;33.10;;;;;;5048705;28;20063;-53
2023/04/15 02:54:59;;;;;;;1.75;1.17;;;21.00;33.10;;;;;;5047063;28;20071;-50
2023/04/15 02:57:27;;;;;;;2.35;1.50;;;21.00;33.10;;;;;;5048675;28;20025;-50
2023/04/15 02:59:54;;;;;;;2.83;1.50;;;21.00;33.10;;;;;;5045618;28;20440;-54
2023/04/15 03:02:20;;;;;;;2.00;1.35;;;21.00;33.80;;;;;;5048818;28;20021;-50
2023/04/15 03:04:46;;;;;;;1.90;1.25;;;21.00;33.10;;;;;;5048745;28;20456;-50
2023/04/15 03:07:12;;;;;;;2.33;1.30;;;21.00;33.10;;;;;;5046639;28;20340;-49
2023/04/15 03:09:40;;;;;;;2.28;1.48;;;21.00;33.10;;;;;;5029493;28;20098;-53
2023/04/15 03:12:06;;;;;;;2.05;1.25;;;21.00;33.10;;;;;;5048186;28;20025;-49
2023/04/15 03:14:32;;;;;;;2.25;1.40;;;21.00;33.10;;;;;;5045498;28;20396;-48
2023/04/15 03:17:00;;;;;;;2.53;1.40;;;21.00;33.10;;;;;;5050426;28;20033;-45
2023/04/15 03:19:26;;;;;;;2.63;1.52;;;21.00;33.20;;;;;;5050808;28;20055;-51
2023/04/15 03:21:52;;;;;;;2.53;1.45;;;21.00;33.10;;;;;;5048927;28;20021;-50
2023/04/15 03:24:19;;;;;;;2.28;1.30;;;21.00;33.20;;;;;;5030400;28;20034;-49
2023/04/15 03:26:45;;;;;;;2.22;1.33;;;21.00;33.20;;;;;;5049042;28;20383;-49
2023/04/15 03:29:15;;;;;;;1.40;1.20;;;21.00;33.20;;;;;;5045693;28;20048;-49
2023/04/15 03:31:41;;;;;;;2.08;1.58;;;21.00;33.20;;;;;;5046321;28;20044;-48
2023/04/15 03:34:07;;;;;;;2.78;1.27;;;21.00;33.20;;;;;;5050044;28;20067;-47
2023/04/15 03:36:32;;;;;;;1.58;1.35;;;21.00;33.20;;;;;;5052135;28;20048;-51
2023/04/15 03:39:00;;;;;;;2.20;1.25;;;21.00;33.20;;;;;;5051913;28;20040;-47
2023/04/15 03:41:27;;;;;;;2.25;1.10;;;21.00;33.30;;;;;;5051239;28;20095;-47
2023/04/15 03:43:53;;;;;;;1.90;1.35;;;21.00;33.30;;;;;;5053156;28;20021;-51
2023/04/15 03:46:20;;;;;;;2.15;1.30;;;21.00;33.30;;;;;;5052374;28;20060;-50
2023/04/15 03:48:46;;;;;;;1.73;1.30;;;21.00;33.30;;;;;;5052197;28;20036;-50
2023/04/15 03:51:12;;;;;;;2.58;1.10;;;21.00;33.30;;;;;;5051736;28;20167;-52
2023/04/15 03:53:38;;;;;;;2.42;1.42;;;21.00;33.40;;;;;;5052679;28;20111;-54
2023/04/15 03:56:04;;;;;;;1.77;1.15;;;21.00;33.30;;;;;;5050224;28;20034;-49
2023/04/15 03:58:30;;;;;;;1.30;1.15;;;21.00;33.30;;;;;;5050368;28;20021;-47
2023/04/15 04:00:56;;;;;;;2.72;1.27;;;21.00;33.30;;;;;;5051605;28;20131;-46
2023/04/15 04:03:21;;;;;;;2.63;1.40;;;20.90;33.20;;;;;;5052034;28;20082;-47
2023/04/15 04:05:47;;;;;;;2.90;1.20;;;21.00;33.30;;;;;;5054506;28;21586;-48
2023/04/15 04:08:15;;;;;;;1.63;1.10;;;20.90;33.30;;;;;;5050351;28;20108;-49
2023/04/15 04:10:41;;;;;;;2.03;1.33;;;20.90;33.30;;;;;;5049256;28;20029;-50
2023/04/15 04:13:07;;;;;;;1.67;1.30;;;21.00;33.30;;;;;;5042823;28;20052;-50
2023/04/15 04:15:33;;;;;;;1.33;1.10;;;21.00;33.30;;;;;;5052025;28;20102;-47
2023/04/15 04:17:59;;;;;;;2.28;1.33;;;20.90;33.30;;;;;;5050453;28;20075;-49
2023/04/15 04:20:24;;;;;;;2.42;1.27;;;20.90;33.30;;;;;;5050563;28;20409;-50
2023/04/15 04:22:50;;;;;;;3.47;1.10;;;20.90;33.30;;;;;;5052246;28;20083;-51
2023/04/15 04:25:16;;;;;;;1.95;1.17;;;20.90;33.30;;;;;;5052427;28;20029;-50
2023/04/15 04:27:42;;;;;;;1.88;1.08;;;21.00;33.40;;;;;;5049543;28;20056;-47
2023/04/15 04:30:08;;;;;;;2.42;1.20;;;20.90;33.30;;;;;;5052562;28;20563;-52
2023/04/15 04:32:34;;;;;;;1.42;0.98;;;20.90;33.30;;;;;;5052270;28;20325;-50
2023/04/15 04:35:00;;;;;;;2.00;1.25;;;20.90;33.40;;;;;;5052626;28;20044;-49
2023/04/15 04:37:26;;;;;;;1.58;1.20;;;20.90;33.30;;;;;;5051528;28;20356;-47
2023/04/15 04:39:51;;;;;;;2.78;1.40;;;20.90;33.30;;;;;;5049619;28;20071;-49
2023/04/15 04:42:17;;;;;;;1.10;0.90;;;20.90;33.40;;;;;;5051280;28;20103;-50
2023/04/15 04:44:43;;;;;;;1.90;1.00;;;20.90;33.40;;;;;;5048942;28;20041;-51
2023/04/15 04:47:09;;;;;;;1.77;1.02;;;20.90;33.40;;;;;;5048946;28;20093;-49
2023/04/15 04:49:36;;;;;;;1.60;1.15;;;20.90;33.40;;;;;;5051222;28;20045;-49
2023/04/15 04:52:02;;;;;;;2.20;1.40;;;20.90;33.40;;;;;;5051582;28;20029;-51
2023/04/15 04:54:30;;;;;;;2.05;1.08;;;20.90;33.40;;;;;;5052365;28;20033;-49
2023/04/15 04:56:56;;;;;;;1.70;1.10;;;20.90;33.40;;;;;;5050317;28;20039;-49
2023/04/15 04:59:22;;;;;;;1.33;1.00;;;20.90;33.50;;;;;;5049926;28;20344;-51
2023/04/15 05:01:48;;;;;;;1.92;1.02;;;20.90;33.50;;;;;;5051469;28;20037;-49
2023/04/15 05:04:14;;;;;;;1.75;0.90;;;20.90;33.50;;;;;;5048449;28;20021;-50
2023/04/15 05:06:40;;;;;;;2.95;1.20;;;20.90;33.50;;;;;;5051201;28;20452;-49
2023/04/15 05:09:06;;;;;;;1.92;1.17;;;20.90;33.50;;;;;;5050841;28;20029;-46
2023/04/15 05:11:32;;;;;;;1.55;1.10;;;20.90;33.60;;;;;;5051536;28;20025;-47
2023/04/15 05:14:01;;;;;;;1.80;1.25;;;20.90;33.50;;;;;;5049974;28;20567;-50
2023/04/15 05:16:27;;;;;;;2.45;1.60;;;20.90;33.60;;;;;;5050631;28;20464;-49
2023/04/15 05:18:53;;;;;;;1.45;1.08;;;20.90;33.60;;;;;;5051589;28;20103;-52
2023/04/15 05:21:19;;;;;;;1.30;1.00;;;20.90;33.60;;;;;;5051708;28;20107;-48
2023/04/15 05:23:46;;;;;;;1.52;1.05;;;20.90;33.60;;;;;;5047057;28;20078;-49
2023/04/15 05:26:11;;;;;;;1.55;0.90;;;20.90;33.60;;;;;;5048523;28;20033;-52
2023/04/15 05:28:37;;;;;;;1.45;0.90;;;20.90;33.60;;;;;;5051609;28;20031;-52
2023/04/15 05:31:03;;;;;;;1.65;1.02;;;20.90;33.70;;;;;;5050328;28;20028;-51
2023/04/15 05:33:29;;;;;;;1.15;0.93;;;20.90;33.70;;;;;;5043604;28;20040;-49
2023/04/15 05:35:55;;;;;;;1.02;0.90;;;20.90;33.80;;;;;;5050290;28;20524;-48
2023/04/15 05:38:20;;;;;;;2.10;1.23;;;20.90;34.40;;;;;;5050287;28;20037;-49
2023/04/15 05:40:47;;;;;;;1.60;1.00;;;20.90;33.80;;;;;;5046205;28;20147;-49
2023/04/15 05:43:12;;;;;;;1.85;1.05;;;20.90;33.80;;;;;;5049743;28;20030;-50
2023/04/15 05:45:38;;;;;;;1.70;1.10;;;20.90;33.90;;;;;;5049249;28;20127;-47
2023/04/15 05:48:04;;;;;;;3.05;1.45;;;20.90;33.90;;;;;;5048687;28;20063;-50
2023/04/15 05:50:30;;;;;;;1.77;1.00;;;20.90;33.90;;;;;;5049828;28;20399;-50
2023/04/15 05:52:56;;;;;;;1.75;1.20;;;20.90;34.00;;;;;;5048646;28;20373;-54
2023/04/15 05:55:22;;;;;;;1.60;1.00;;;20.90;34.00;;;;;;5050635;28;20032;-54
2023/04/15 05:57:47;;;;;;;1.00;0.90;;;20.90;34.10;;;;;;5048855;28;20037;-49
2023/04/15 06:00:14;;;;;;;2.08;1.13;;;20.90;34.10;;;;;;5050660;28;20021;-52
2023/04/15 06:02:40;;;;;;;1.35;1.02;;;20.90;34.20;;;;;;5048121;28;20032;-47
2023/04/15 06:05:08;;;;;;;1.48;1.17;;;20.90;34.20;;;;;;5049454;28;20047;-48
2023/04/15 06:07:37;;;;;;;3.10;1.20;;;20.90;34.20;;;;;;5046810;28;20032;-52
2023/04/15 06:10:04;;;;;;;1.35;1.10;;;20.90;34.20;;;;;;5050585;28;20032;-49
2023/04/15 06:12:30;;;;;;;1.65;1.00;;;20.90;34.30;;;;;;5050307;28;20020;-48
2023/04/15 06:14:56;;;;;;;1.52;0.85;;;21.00;34.30;;;;;;5053832;28;20040;-52
2023/04/15 06:17:23;;;;;;;1.23;1.00;;;21.00;34.50;;;;;;5053209;28;20564;-52
2023/04/15 06:19:54;;;;;;;1.70;0.90;;;21.00;34.50;;;;;;5053050;28;20021;-47
2023/04/15 06:22:25;;;;;;;1.42;1.00;;;21.00;34.50;;;;;;5053436;28;20107;-50
2023/04/15 06:24:53;;;;;;;1.58;0.95;;;21.00;34.50;;;;;;5053056;28;20025;-46
2023/04/15 06:27:19;;;;;;;1.02;0.90;;;21.00;34.50;;;;;;5053281;28;20086;-53
2023/04/15 06:29:45;;;;;;;1.60;1.00;;;21.00;34.60;;;;;;5053404;28;20026;-46
2023/04/15 06:32:12;;;;;;;1.23;1.00;;;21.00;34.50;;;;;;5051470;28;20086;-47
2023/04/15 06:34:38;;;;;;;2.10;1.10;;;21.00;34.50;;;;;;5053158;28;20029;-47
2023/04/15 06:37:05;;;;;;;3.58;1.17;;;21.00;34.60;;;;;;5050392;28;20052;-49
2023/04/15 06:39:31;;;;;;;0.95;0.80;;;21.00;34.60;;;;;;5053019;28;20041;-48
2023/04/15 06:41:57;;;;;;;1.52;1.13;;;21.00;34.60;;;;;;5052273;28;20048;-46
2023/04/15 06:44:23;;;;;;;1.48;1.10;;;21.00;34.60;;;;;;5052295;28;20465;-46
2023/04/15 06:46:48;;;;;;;2.28;0.98;;;21.00;34.50;;;;;;5053333;28;20068;-49
2023/04/15 06:49:14;;;;;;;1.17;0.95;;;21.00;34.50;;;;;;5052821;28;20036;-51
2023/04/15 06:51:41;;;;;;;1.50;1.20;;;21.00;34.40;;;;;;5054681;28;20044;-50
2023/04/15 06:54:07;;;;;;;2.17;1.20;;;21.00;34.40;;;;;;5051121;28;20421;-50
2023/04/15 06:56:33;;;;;;;1.73;1.38;;;21.00;34.30;;;;;;5044709;28;20044;-48
2023/04/15 06:58:59;;;;;;;2.83;1.50;;;21.00;34.30;;;;;;5047252;28;20037;-51
2023/04/15 07:01:25;;;;;;;2.60;1.83;;;21.00;34.40;;;;;;5047297;28;20233;-48
2023/04/15 07:03:51;;;;;;;4.35;2.25;;;21.10;34.50;;;;;;5052901;28;20040;-47
2023/04/15 07:06:17;;;;;;;5.45;3.10;;;21.10;34.60;;;;;;5052712;28;20021;-49
2023/04/15 07:08:43;;;;;;;3.28;2.88;;;21.20;34.60;;;;;;5048919;28;20421;-50
2023/04/15 07:11:09;;;;;;;6.15;3.60;;;21.10;34.60;;;;;;5049887;28;20440;-51
2023/04/15 07:13:35;;;;;;;6.32;3.58;;;21.20;34.60;;;;;;5052944;28;20025;-50
2023/04/15 07:16:01;;;;;;;4.90;3.63;;;21.20;34.60;;;;;;5054118;28;20045;-49
2023/04/15 07:18:27;;;;;;;6.45;4.35;;;21.30;34.60;;;;;;5045073;28;20029;-48
2023/04/15 07:20:53;;;;;;;5.10;3.90;;;21.30;34.60;;;;;;5049800;28;20104;-53
2023/04/15 07:23:20;;;;;;;5.35;4.28;;;21.40;34.50;;;;;;5052029;28;20049;-49
2023/04/15 07:25:47;;;;;;;5.07;3.90;;;21.40;34.50;;;;;;5054056;28;20111;-51
2023/04/15 07:28:15;;;;;;;5.32;3.78;;;21.50;34.50;;;;;;5054662;28;20456;-47
2023/04/15 07:30:41;;;;;;;4.63;3.92;;;21.60;34.50;;;;;;5060202;28;20040;-49
2023/04/15 07:33:08;;;;;;;5.68;4.18;;;21.60;34.40;;;;;;5051187;28;20029;-53
2023/04/15 07:35:35;;;;;;;6.13;4.78;;;21.70;34.40;;;;;;5051992;28;20036;-49
2023/04/15 07:38:01;;;;;;;6.63;4.88;;;21.80;34.30;;;;;;5051554;28;20028;-48
2023/04/15 07:40:27;;;;;;;6.55;4.40;;;21.90;34.30;;;;;;5052546;28;20021;-50
2023/04/15 07:42:53;;;;;;;5.63;4.35;;;21.90;34.20;;;;;;5053985;28;20132;-50
2023/04/15 07:45:19;;;;;;;5.25;4.30;;;22.00;34.10;;;;;;5047710;28;20057;-54
2023/04/15 07:47:45;;;;;;;6.35;4.55;;;22.10;34.10;;;;;;5044674;28;20025;-55
2023/04/15 07:50:11;;;;;;;7.35;5.22;;;22.10;34.20;;;;;;5048630;28;20112;-47
2023/04/15 07:52:38;;;;;;;6.50;5.13;;;22.20;34.40;;;;;;5042414;28;20461;-48
2023/04/15 07:55:07;;;;;;;7.22;5.50;;;22.20;34.40;;;;;;5042031;28;20428;-54
2023/04/15 07:57:34;;;;;;;6.80;4.82;;;22.30;34.40;;;;;;5047616;28;20022;-53
2023/04/15 08:00:01;;;;;;;6.97;4.30;;;22.30;34.30;;;;;;5044641;28;20057;-53
2023/04/15 08:02:38;;;;;;;6.80;5.07;;;22.40;34.10;;;;;;5039294;28;20049;-48
2023/04/15 08:05:06;;;;;;;5.55;4.43;;;22.40;34.00;;;;;;5044617;28;20017;-44
2023/04/15 08:07:32;;;;;;;5.50;4.30;;;22.50;33.90;;;;;;5044784;28;20089;-46
2023/04/15 08:09:58;;;;;;;6.25;4.70;;;22.50;33.80;;;;;;5043773;28;20036;-48
2023/04/15 08:12:24;;;;;;;7.03;5.15;;;22.60;33.70;;;;;;5042795;28;20017;-46
2023/04/15 08:14:51;;;;;;;6.45;5.25;;;22.60;33.70;;;;;;5046600;28;20021;-50
2023/04/15 08:17:16;;;;;;;7.28;5.82;;;22.60;33.60;;;;;;5059807;28;20495;-46
2023/04/15 08:19:42;;;;;;;7.45;6.05;;;22.60;33.60;;;;;;5048898;28;20029;-48
2023/04/15 08:22:10;;;;;;;8.77;5.90;;;22.70;33.70;;;;;;5053226;28;20040;-48
2023/04/15 08:24:37;;;;;;;6.78;5.38;;;22.70;33.60;;;;;;5055535;28;20021;-49
2023/04/15 08:27:04;;;;;;;6.72;4.90;;;22.70;33.60;;;;;;5056230;28;20021;-49
2023/04/15 08:29:31;;;;;;;6.13;4.93;;;22.70;33.50;;;;;;5048840;28;20026;-50
2023/04/15 08:31:59;;;;;;;5.45;4.60;;;22.70;33.60;;;;;;5046693;28;20044;-50
2023/04/15 08:34:25;;;;;;;5.72;4.65;;;22.70;33.50;;;;;;5048838;28;20021;-47
2023/04/15 08:36:51;;;;;;;6.28;4.57;;;22.70;33.40;;;;;;5050958;28;20094;-52
2023/04/15 08:39:17;;;;;;;5.65;4.45;;;22.70;33.30;;;;;;5047868;28;20394;-48
2023/04/15 08:42:02;;;;;;;4.78;3.63;;;22.70;33.10;;;;;;5048121;28;20408;-47
2023/04/15 08:44:32;;;;;;;4.88;4.10;;;22.70;33.00;;;;;;5048462;28;20049;-46
2023/04/15 08:47:01;;;;;;;4.78;3.58;;;22.70;33.00;;;;;;5044219;28;20453;-48
2023/04/15 08:49:28;;;;;;;5.53;3.95;;;22.70;32.90;;;;;;5048931;28;20029;-49
2023/04/15 08:51:58;;;;;;;4.65;4.03;;;22.70;32.80;;;;;;5043013;28;20353;-46
2023/04/15 08:54:24;;;;;;;4.95;3.20;;;22.70;32.80;;;;;;5047807;28;20032;-46
2023/04/15 08:56:52;;;;;;;4.32;3.30;;;22.70;32.70;;;;;;5053426;28;20458;-51
2023/04/15 08:59:20;;;;;;;4.30;3.20;;;22.70;32.80;;;;;;5054620;28;21531;-48
2023/04/15 09:01:47;;;;;;;3.75;3.00;;;22.70;32.90;;;;;;5052681;28;20040;-48
2023/04/15 09:04:13;;;;;;;3.95;3.35;;;22.70;33.00;;;;;;5056065;28;20036;-48
2023/04/15 09:06:40;;;;;;;3.45;3.10;;;22.70;33.10;;;;;;5054271;28;20033;-50
2023/04/15 09:09:06;;;;;;;4.18;3.30;;;22.70;33.00;;;;;;5050894;28;20049;-52
2023/04/15 09:11:31;;;;;;;5.78;2.97;;;22.70;33.00;;;;;;5053166;28;20126;-49
2023/04/15 09:13:57;;;;;;;4.10;3.17;;;22.70;33.10;;;;;;5054868;28;20036;-49
2023/04/15 09:16:23;;;;;;;3.85;3.13;;;22.70;33.10;;;;;;5055935;28;20047;-50
2023/04/15 09:18:49;;;;;;;3.28;2.67;;;22.70;33.10;;;;;;5057575;28;20067;-50
2023/04/15 09:21:16;;;;;;;3.15;2.70;;;22.70;33.00;;;;;;5054410;28;20072;-48
2023/04/15 09:24:00;;;;;;;3.20;2.42;;;22.70;33.00;;;;;;5053677;28;20040;-50
2023/04/15 09:26:34;;;;;;;3.55;2.70;;;22.70;32.90;;;;;;5052499;28;20025;-45
2023/04/15 09:29:08;;;;;;;3.15;2.35;;;22.70;32.90;;;;;;5054155;28;20033;-47
2023/04/15 09:31:39;;;;;;;3.92;2.50;;;22.70;32.80;;;;;;5049580;28;20482;-53
2023/04/15 09:34:06;;;;;;;3.55;2.45;;;22.70;32.80;;;;;;5053721;28;20449;-50
2023/04/15 09:36:52;;;;;;;3.90;3.00;;;22.60;32.80;;;;;;5045980;28;20033;-50
2023/04/15 09:39:18;;;;;;;4.03;3.30;;;22.60;32.90;;;;;;5041962;28;20472;-50
2023/04/15 09:41:44;;;;;;;4.07;3.67;;;22.60;32.90;;;;;;5037247;28;20044;-48
2023/04/15 09:44:26;;;;;;;4.40;4.00;;;22.60;33.00;;;;;;5041512;28;20083;-50
2023/04/15 09:46:52;;;;;;;6.18;4.07;;;22.60;32.90;;;;;;5040608;28;20132;-48
2023/04/15 09:49:19;;;;;;;5.50;4.70;;;22.60;33.00;;;;;;5039958;28;20033;-49
2023/04/15 09:51:48;;;;;;;5.57;4.38;;;22.60;33.00;;;;;;5045306;28;20028;-48
2023/04/15 09:54:20;;;;;;;5.00;4.00;;;22.70;33.00;;;;;;5035875;28;20029;-50
2023/04/15 09:56:46;;;;;;;5.63;4.63;;;22.60;32.90;;;;;;5043202;28;20476;-47
2023/04/15 09:59:11;;;;;;;4.72;4.22;;;22.60;32.90;;;;;;5041629;28;20044;-50
2023/04/15 10:01:39;;;;;;;5.43;4.28;;;22.60;32.90;;;;;;5035827;28;20124;-52
2023/04/15 10:04:05;;;;;;;4.82;4.03;;;22.60;32.90;;;;;;5044818;28;20445;-54
2023/04/15 10:06:31;;;;;;;5.35;4.38;;;22.60;32.80;;;;;;5038463;28;20037;-48
2023/04/15 10:09:00;;;;;;;4.93;3.50;;;22.60;32.80;;;;;;5036902;28;20025;-50
2023/04/15 10:11:30;;;;;;;5.10;3.83;;;22.60;32.80;;;;;;5039066;28;20520;-49
2023/04/15 10:13:57;;;;;;;4.03;3.35;;;22.60;32.80;;;;;;5041818;28;22075;-48
2023/04/15 10:16:27;;;;;;;4.00;3.47;;;22.60;32.80;;;;;;5040414;28;20040;-47
2023/04/15 10:18:57;;;;;;;3.53;2.60;;;22.60;32.60;;;;;;5039214;28;20033;-49
2023/04/15 10:21:23;;;;;;;3.53;2.70;;;22.60;32.60;;;;;;5044035;28;20026;-49
2023/04/15 10:23:50;;;;;;;2.85;2.40;;;22.50;32.50;;;;;;5039557;28;20035;-45
2023/04/15 10:26:17;;;;;;;3.40;2.60;;;22.50;32.50;;;;;;5045692;28;20029;-51
2023/04/15 10:28:43;;;;;;;4.55;2.80;;;22.50;32.50;;;;;;5041940;28;20037;-46
2023/04/15 10:31:15;;;;;;;2.78;2.20;;;22.40;32.50;;;;;;5037360;28;20029;-48
2023/04/15 10:33:42;;;;;;;4.03;2.95;;;22.40;32.50;;;;;;5043468;28;20189;-49
2023/04/15 10:36:08;;;;;;;5.00;3.95;;;22.40;32.60;;;;;;5044860;28;20037;-49
2023/04/15 10:38:42;;;;;;;5.55;4.57;;;22.40;32.90;;;;;;5043408;28;20472;-46
2023/04/15 10:41:23;;;;;;;8.38;5.95;;;22.40;32.90;;;;;;5044097;28;20396;-47
2023/04/15 10:43:52;;;;;;;10.88;8.95;;;22.40;32.90;;;;;;5039436;28;20041;-50
2023/04/15 10:46:40;;;;;;;12.38;10.70;;;22.40;33.00;;;;;;5040569;28;20049;-48
2023/04/15 10:49:11;;;;;;;14.82;11.98;;;22.40;33.10;;;;;;5041841;28;20025;-47
2023/04/15 10:51:45;;;;;;;14.50;11.15;;;22.40;33.10;;;;;;5040079;28;20025;-48
2023/04/15 10:54:16;;;;;;;11.97;9.77;;;22.40;33.10;;;;;;5040585;28;20025;-50
2023/04/15 10:56:51;;;;;;;11.88;9.02;;;22.40;33.10;;;;;;5047335;28;20048;-53
2023/04/15 10:59:18;;;;;;;10.70;8.57;;;22.40;33.10;;;;;;5044726;28;20033;-55
2023/04/15 11:01:53;;;;;;;11.73;8.82;;;22.40;33.10;;;;;;5043757;28;20033;-54
2023/04/15 11:04:56;;;;;;;9.07;7.63;;;22.40;32.90;;;;;;5039802;28;20032;-55
2023/04/15 11:07:47;;;;;;;8.65;6.60;;;22.50;32.80;;;;;;5036441;28;20419;-51
2023/04/15 11:10:13;;;;;;;10.00;7.90;;;22.60;32.50;;;;;;5046133;28;20032;-51
2023/04/15 11:12:39;;;;;;;12.85;10.00;;;22.60;32.50;;;;;;5043460;28;20090;-51
2023/04/15 11:15:29;;;;;;;15.82;12.40;;;22.70;32.60;;;;;;5035950;28;20029;-51
2023/04/15 11:17:57;;;;;;;16.90;14.32;;;22.80;32.90;;;;;;5038875;28;20040;-51
2023/04/15 11:20:23;;;;;;;18.75;15.52;;;22.90;33.00;;;;;;5040118;28;20017;-50
2023/04/15 11:22:51;;;;;;;18.30;15.30;;;23.00;33.10;;;;;;5045704;28;20416;-48
2023/04/15 11:25:24;;;;;;;20.27;16.02;;;23.10;33.10;;;;;;5046282;28;20479;-51
2023/04/15 11:27:53;;;;;;;20.15;14.90;;;23.10;33.00;;;;;;5041565;28;20029;-51
2023/04/15 11:30:22;;;;;;;20.90;16.08;;;23.20;33.00;;;;;;5053006;28;20095;-55
2023/04/15 11:32:49;;;;;;;19.58;16.67;;;23.30;32.90;;;;;;5046026;28;20025;-53
2023/04/15 11:35:17;;;;;;;21.83;17.17;;;23.30;32.90;;;;;;5041356;28;20072;-53
2023/04/15 11:37:44;;;;;;;21.08;17.35;;;23.40;32.90;;;;;;5040579;28;20033;-51
2023/04/15 11:40:10;;;;;;;21.30;16.77;;;23.40;32.80;;;;;;5042890;28;20317;-53
2023/04/15 11:42:36;;;;;;;24.00;18.15;;;23.50;32.80;;;;;;5038271;28;20044;-51
2023/04/15 11:45:13;;;;;;;25.25;18.80;;;23.50;32.80;;;;;;5027961;28;20042;-50
2023/04/15 11:47:40;;;;;;;21.60;18.10;;;23.60;32.80;;;;;;5039594;28;20025;-54
2023/04/15 11:50:13;;;;;;;22.08;17.73;;;23.60;32.80;;;;;;5040000;28;20096;-53
2023/04/15 11:52:39;;;;;;;20.97;17.40;;;23.60;32.80;;;;;;5041257;28;20056;-52
2023/04/15 11:55:07;;;;;;;23.58;18.67;;;23.60;32.70;;;;;;5032272;28;20381;-54
2023/04/15 11:57:34;;;;;;;22.63;19.98;;;23.70;32.70;;;;;;5038712;28;20033;-51
2023/04/15 12:00:00;;;;;;;23.38;19.50;;;23.70;32.70;;;;;;5041335;28;20033;-50
2023/04/15 12:02:35;;;;;;;23.88;19.80;;;23.70;32.70;;;;;;5037612;28;20036;-52
2023/04/15 12:05:05;;;;;;;23.17;19.13;;;23.80;32.70;;;;;;5040231;28;20040;-55
2023/04/15 12:07:31;;;;;;;24.05;18.48;;;23.80;32.60;;;;;;5044206;28;20023;-52
2023/04/15 12:09:58;;;;;;;24.58;19.55;;;23.80;32.60;;;;;;5047356;28;20527;-53
2023/04/15 12:12:28;;;;;;;23.88;19.60;;;23.80;32.70;;;;;;5039631;28;20357;-55
2023/04/15 12:14:56;;;;;;;23.65;18.65;;;23.90;32.90;;;;;;5037610;28;20115;-53
2023/04/15 12:17:23;;;;;;;21.35;17.67;;;23.90;32.70;;;;;;5041696;28;20064;-50
2023/04/15 12:19:55;;;;;;;19.23;16.63;;;23.90;32.60;;;;;;5062188;28;20025;-53
2023/04/15 12:22:21;;;;;;;19.73;16.50;;;24.00;32.50;;;;;;5038093;28;20017;-56
2023/04/15 12:24:55;;;;;;;19.42;15.25;;;24.00;32.40;;;;;;5043874;28;20033;-52
2023/04/15 12:27:26;;;;;;;18.27;14.15;;;24.10;32.20;;;;;;5042937;28;20528;-54
2023/04/15 12:30:05;;;;;;;17.08;13.85;;;24.10;32.10;;;;;;5040905;28;20071;-54
2023/04/15 12:32:34;;;;;;;16.85;13.07;;;24.10;31.90;;;;;;5040868;28;20040;-50
2023/04/15 12:35:00;;;;;;;13.73;11.32;;;24.10;31.70;;;;;;5038614;28;20029;-55
2023/04/15 12:37:27;;;;;;;19.35;11.02;;;24.20;31.70;;;;;;5044377;28;20048;-50
2023/04/15 12:39:53;;;;;;;17.95;11.35;;;24.20;31.90;;;;;;5041119;28;20017;-51
2023/04/15 12:42:19;;;;;;;12.50;10.25;;;24.20;32.00;;;;;;5041413;28;20453;-49
2023/04/15 12:44:46;;;;;;;13.32;9.55;;;24.30;32.00;;;;;;5046453;28;20052;-52